LRBS - BUCURESTI / BANEASA-AUREL VLAICU

Compiled: 17:55:50 on 22/07/2018

Latest METAR/SPECI Reports

METAR LRBS 221730Z 34004KT 300V020 CAVOK 23/16 Q1008 NOSIG=

Previous reports

METAR LRBS 221700Z 01003KT 350V050 CAVOK 24/16 Q1007 NOSIG=
METAR LRBS 221630Z 02004KT 330V060 CAVOK 24/16 Q1007 NOSIG=
METAR LRBS 221600Z 06004KT 360V110 CAVOK 25/18 Q1007 R07/CLRD// NOSIG=
METAR COR LRBS 221530Z 07004KT 020V110 CAVOK 25/18 Q1008 R07/CLRD// NOSIG=

Latest TAF report

TAF LRBS 221700Z 2218/2318 VRB04KT CAVOK TEMPO 2220/2224 SCT040CB PROB40 TEMPO 2220/2224 VRB15G25KT 5000 TSRA TEMPO 2306/2310 5000 -SHRA SCT015 SCT040CB TEMPO 2310/2318 VRB20KT 5000 TSRA SCT015 SCT040CB=

Valid WARNINGS

No valid warnings for LRBS